ΕΜΥ, Εθνική Μετεωρολογική Υπηρεσία - Δελτία Καιρού, Προγνώσεις

ΑΕΡΟΝΑΥΤΙΛΙΑ

GREEK AIRPORTS CODES

TAF LGNX 180700Z 1809/1818 36015KT 9999 FEW010 SCT020=

EUROPEAN AIRPORTS CODES

LFPO 182100Z 17007KT 9999 -RA FEW016 BKN048 15/14 Q1021 NOSIG=